Sandia, Texas
Current Conditions -  °F | °C
As of 10:56 AM on Sunday 23 Nov 2014 (Local Time) from KNOG Reporting Station
Clear Clear  
Wind Chill: 76°   Ceiling: Unl
Heat Index: 76°   Visibility: 10mi
Dew Point: 55°   Wind: 8mph
Humidity: 48%   Direction: 250°WSW
Pressure: 29.73"   Gusts: NA
Location:  28.02°N, 97.88°W
Report Text: KNOG 231656Z AUTO 25007KT 10SM CLR 24/13 A2973 RMK AO2 SLP047 T02440128 $
Loading
Personal Weather Stations






























Interactive Weather Map New forecast layout! Learn more

10-Day Weather Forecast

Advertisements
Track Severe Weather on mobile